createdAt,value
2019-05-25T01:08:25.168Z,20.26
2019-05-25T01:11:00.556Z,20.04
2019-05-25T01:13:35.713Z,20.05
2019-05-25T01:16:10.950Z,20.19
2019-05-25T07:46:55.637Z,23.44
2019-05-25T07:49:31.166Z,23.65
2019-05-25T07:52:05.972Z,23.86
2019-05-25T07:54:38.978Z,24.01
2019-05-25T07:57:15.771Z,24.15
2019-05-25T07:59:46.686Z,24.26
2019-05-25T08:02:21.758Z,24.35
2019-05-25T08:04:55.712Z,24.43
2019-05-25T08:07:28.712Z,24.53
2019-05-25T08:10:01.797Z,24.63
2019-05-25T08:12:36.456Z,24.71
2019-05-25T08:15:09.794Z,24.78
2019-05-25T08:17:42.858Z,24.79
2019-05-25T08:20:15.963Z,24.80
2019-05-25T08:22:50.715Z,24.82
2019-05-25T08:25:25.381Z,24.87
2019-05-25T08:27:58.553Z,24.87
2019-05-25T08:30:31.718Z,24.85
2019-05-25T08:33:04.998Z,24.82
2019-05-25T08:35:38.198Z,24.82
2019-05-25T08:38:11.435Z,24.83
2019-05-25T08:40:44.843Z,24.85
2019-05-25T08:43:18.011Z,24.87
2019-05-25T08:45:51.368Z,24.87
2019-05-25T08:48:24.571Z,24.91
2019-05-25T08:50:59.704Z,24.95
2019-05-25T08:53:41.535Z,24.99
2019-05-25T08:56:10.723Z,25.01
2019-05-25T08:58:48.412Z,25.01
2019-05-25T09:01:18.944Z,25.03
2019-05-25T09:03:52.264Z,25.08
2019-05-25T09:06:27.079Z,25.12
2019-05-25T09:08:59.999Z,25.16
2019-05-25T09:11:38.484Z,25.24
2019-05-25T09:14:11.889Z,25.35
2019-05-25T09:16:45.284Z,25.40
2019-05-25T09:19:20.083Z,25.46
2019-05-25T09:22:01.896Z,25.60
2019-05-25T09:24:28.222Z,25.72
2019-05-25T09:27:13.675Z,25.82
2019-05-25T09:29:48.563Z,25.90
2019-05-25T09:32:23.714Z,25.93
2019-05-25T09:34:59.182Z,25.95
2019-05-25T09:37:32.765Z,25.97
2019-05-25T09:40:07.748Z,25.97
2019-05-25T09:42:42.706Z,25.98
2019-05-25T09:45:16.776Z,25.99
2019-05-25T09:47:50.517Z,25.99
2019-05-25T09:50:24.175Z,26.02
2019-05-25T09:52:56.888Z,26.04
2019-05-25T09:55:30.029Z,25.97
2019-05-25T09:58:03.736Z,25.95
2019-05-25T10:00:40.214Z,25.93
2019-05-25T10:03:17.151Z,25.93
2019-05-25T10:05:47.644Z,25.95
2019-05-25T10:08:20.859Z,25.94
2019-05-25T10:11:03.919Z,25.81
2019-05-25T10:13:38.318Z,25.72
2019-05-25T10:16:11.737Z,25.68
2019-05-25T10:18:54.056Z,25.72
2019-05-25T10:21:32.361Z,25.88
2019-05-25T10:24:05.536Z,26.04
2019-05-25T10:26:38.977Z,26.13
2019-05-25T10:29:12.446Z,26.23
2019-05-25T10:31:47.744Z,26.27
2019-05-25T10:34:23.250Z,26.34
2019-05-25T10:36:57.128Z,26.39
2019-05-25T10:39:31.394Z,26.38
2019-05-25T10:42:03.902Z,26.33
2019-05-25T10:44:37.387Z,26.29
2019-05-25T10:47:14.187Z,26.28
